createdAt,value
2022-09-29T00:01:02.801Z,82.24
2022-09-29T00:06:14.532Z,81.93
2022-09-29T00:11:19.864Z,82.06
2022-09-29T00:16:23.182Z,82.21
2022-09-29T00:21:26.109Z,82.43
2022-09-29T00:26:29.055Z,82.12
2022-09-29T00:31:33.861Z,82.09
2022-09-29T00:36:35.850Z,82.42
2022-09-29T00:41:40.243Z,82.60
2022-09-29T00:47:03.510Z,82.66
2022-09-29T00:52:12.541Z,82.54
2022-09-29T00:57:20.522Z,82.53
2022-09-29T01:02:24.042Z,82.62
2022-09-29T01:07:27.957Z,82.47
2022-09-29T01:12:30.681Z,82.44
2022-09-29T01:17:33.871Z,82.23
2022-09-29T01:22:43.337Z,82.27
2022-09-29T01:28:33.897Z,82.62
2022-09-29T01:34:00.524Z,82.06
2022-09-29T01:39:32.100Z,82.45
2022-09-29T01:44:45.095Z,82.40
2022-09-29T01:49:56.387Z,82.06
2022-09-29T01:55:12.353Z,82.45
2022-09-29T02:00:18.395Z,82.64
2022-09-29T02:05:36.350Z,82.69
2022-09-29T02:10:47.960Z,82.94
2022-09-29T02:15:55.343Z,82.62
2022-09-29T02:20:58.128Z,82.57
2022-09-29T02:26:02.828Z,82.65
2022-09-29T02:31:07.624Z,82.41
2022-09-29T02:36:25.546Z,82.10
2022-09-29T02:41:50.164Z,82.71
2022-09-29T02:47:15.018Z,82.49
2022-09-29T02:52:27.471Z,82.69
2022-09-29T02:57:50.794Z,82.59
2022-09-29T03:02:52.838Z,82.70
2022-09-29T03:07:54.618Z,82.54
2022-09-29T03:12:56.792Z,82.25
2022-09-29T03:17:59.139Z,82.58
2022-09-29T03:23:02.454Z,82.18
2022-09-29T03:28:05.384Z,82.27
2022-09-29T03:33:08.627Z,82.24
2022-09-29T03:38:11.671Z,82.14
2022-09-29T03:43:14.977Z,82.96
2022-09-29T03:48:21.875Z,83.31
2022-09-29T03:53:28.004Z,83.27
2022-09-29T03:58:30.402Z,83.17
2022-09-29T04:03:32.444Z,83.52
2022-09-29T04:08:38.856Z,83.17
2022-09-29T04:13:41.725Z,83.62
2022-09-29T04:18:44.173Z,83.73
2022-09-29T04:23:48.843Z,83.79
2022-09-29T04:28:52.145Z,83.46
2022-09-29T04:33:54.628Z,84.00
2022-09-29T04:38:58.331Z,83.64
2022-09-29T04:44:02.327Z,83.41
2022-09-29T04:49:09.662Z,83.55
2022-09-29T04:54:12.924Z,83.76
2022-09-29T04:59:17.865Z,83.54
2022-09-29T05:04:20.061Z,83.39
2022-09-29T05:09:24.838Z,83.26
2022-09-29T05:14:27.086Z,83.06
2022-09-29T05:19:29.607Z,83.34
2022-09-29T05:24:32.871Z,83.22
2022-09-29T05:29:36.208Z,82.89
2022-09-29T05:34:39.766Z,83.08
2022-09-29T05:39:44.841Z,82.82
2022-09-29T05:44:48.041Z,83.01
2022-09-29T05:49:51.590Z,83.11
2022-09-29T05:54:54.932Z,83.03
2022-09-29T05:59:58.129Z,82.85
2022-09-29T06:05:00.997Z,82.95
2022-09-29T06:10:04.365Z,82.56
2022-09-29T06:15:07.417Z,82.21
2022-09-29T06:20:09.717Z,82.56
2022-09-29T06:25:13.214Z,82.68
2022-09-29T06:30:15.468Z,83.14
2022-09-29T06:35:36.511Z,83.00
2022-09-29T06:40:39.613Z,82.52
2022-09-29T06:45:42.516Z,83.08
2022-09-29T06:50:45.477Z,82.53
2022-09-29T06:55:56.753Z,82.40
2022-09-29T07:01:05.530Z,82.84
2022-09-29T07:06:20.040Z,82.92
2022-09-29T07:11:24.003Z,82.50
2022-09-29T07:16:26.744Z,82.47
2022-09-29T07:21:29.844Z,82.24
2022-09-29T07:26:32.723Z,82.20
2022-09-29T07:31:46.464Z,82.53
2022-09-29T07:36:53.376Z,82.58
2022-09-29T07:42:00.436Z,82.29
2022-09-29T07:47:03.651Z,82.37
2022-09-29T07:52:06.736Z,82.04
2022-09-29T07:57:10.951Z,82.02
2022-09-29T08:02:12.997Z,82.02
2022-09-29T08:07:15.975Z,81.58
2022-09-29T08:12:19.308Z,81.01
2022-09-29T08:17:22.007Z,81.37
2022-09-29T08:22:24.199Z,81.79
2022-09-29T08:27:29.171Z,80.76
2022-09-29T08:32:31.811Z,80.69
2022-09-29T08:37:35.278Z,80.69
2022-09-29T08:42:57.645Z,80.85
2022-09-29T08:48:22.889Z,80.61
2022-09-29T08:53:30.524Z,79.90
2022-09-29T08:58:34.518Z,79.02
2022-09-29T09:03:59.229Z,77.54
2022-09-29T09:09:19.449Z,76.86
2022-09-29T09:14:28.418Z,76.72
2022-09-29T09:19:50.665Z,76.45
2022-09-29T09:25:13.837Z,77.20
2022-09-29T09:30:19.343Z,77.41
2022-09-29T09:35:57.903Z,77.27
2022-09-29T09:41:02.752Z,77.11
2022-09-29T09:46:31.104Z,76.31
2022-09-29T09:51:52.977Z,74.97
2022-09-29T09:57:25.142Z,74.56
2022-09-29T10:02:30.484Z,74.06
2022-09-29T10:07:32.869Z,74.27
2022-09-29T10:12:35.486Z,73.66
2022-09-29T10:17:47.373Z,73.24
2022-09-29T10:22:51.836Z,72.67
2022-09-29T10:27:57.869Z,71.81
2022-09-29T10:33:10.370Z,70.98
2022-09-29T10:38:19.199Z,71.12
2022-09-29T10:43:26.498Z,70.48
2022-09-29T10:48:29.599Z,69.27
2022-09-29T10:53:37.053Z,69.14
2022-09-29T10:58:58.995Z,68.34
2022-09-29T11:04:15.757Z,67.76
2022-09-29T11:09:21.556Z,66.15
2022-09-29T11:14:36.354Z,66.02
2022-09-29T11:19:40.943Z,65.37
2022-09-29T11:25:11.887Z,64.78
2022-09-29T11:30:21.630Z,64.04
2022-09-29T11:35:39.294Z,63.02
2022-09-29T11:40:52.184Z,62.13
2022-09-29T11:46:29.456Z,62.16
2022-09-29T11:51:34.953Z,61.17
2022-09-29T11:56:47.359Z,60.47
2022-09-29T12:02:20.225Z,60.45
2022-09-29T12:08:00.967Z,60.06
2022-09-29T12:13:13.532Z,59.51
2022-09-29T12:18:40.286Z,59.34
2022-09-29T12:23:46.798Z,59.07
2022-09-29T12:29:02.033Z,58.95
2022-09-29T12:34:29.858Z,59.00
2022-09-29T12:39:56.715Z,58.42
2022-09-29T12:45:10.856Z,58.73
2022-09-29T12:50:26.275Z,58.25
2022-09-29T12:56:01.832Z,58.20
2022-09-29T13:01:16.602Z,58.57
2022-09-29T13:06:58.367Z,58.24
2022-09-29T13:12:32.568Z,57.89
2022-09-29T13:17:48.433Z,57.82
2022-09-29T13:23:14.817Z,57.99
2022-09-29T13:28:27.299Z,58.13
2022-09-29T13:33:31.703Z,58.16
2022-09-29T13:38:39.609Z,58.21
2022-09-29T13:43:53.075Z,57.87
2022-09-29T13:49:14.303Z,58.36
2022-09-29T13:54:28.420Z,58.71
2022-09-29T13:59:33.316Z,59.11
2022-09-29T14:04:41.679Z,59.45
2022-09-29T14:09:48.301Z,59.70
2022-09-29T14:14:57.902Z,60.17
2022-09-29T14:20:10.807Z,60.40
2022-09-29T14:25:15.704Z,60.47
2022-09-29T14:30:42.243Z,59.70
2022-09-29T14:35:50.516Z,60.00
2022-09-29T14:41:03.143Z,60.32
2022-09-29T14:46:46.543Z,60.53
2022-09-29T14:51:59.743Z,60.33
2022-09-29T14:57:25.756Z,60.59
2022-09-29T15:02:31.029Z,61.60
2022-09-29T15:07:40.980Z,61.98
2022-09-29T15:12:50.448Z,62.66
2022-09-29T15:18:01.189Z,63.44
2022-09-29T15:23:39.709Z,63.63
2022-09-29T15:28:43.989Z,64.12
2022-09-29T15:33:47.978Z,64.92
2022-09-29T15:38:53.859Z,65.38
2022-09-29T15:44:02.722Z,66.14
2022-09-29T15:49:18.473Z,66.37
2022-09-29T15:54:21.963Z,66.51
2022-09-29T15:59:55.436Z,66.93
2022-09-29T16:05:04.745Z,67.48
2022-09-29T16:10:20.995Z,67.55
2022-09-29T16:15:29.496Z,67.62
2022-09-29T16:20:35.513Z,67.80
2022-09-29T16:25:37.482Z,67.76
2022-09-29T16:30:39.835Z,67.88
2022-09-29T16:35:48.355Z,68.30
2022-09-29T16:40:53.149Z,68.27
2022-09-29T16:45:59.739Z,68.33
2022-09-29T16:51:12.364Z,68.77
2022-09-29T16:56:32.139Z,69.18
2022-09-29T17:01:34.806Z,69.49
2022-09-29T17:06:37.412Z,69.53
2022-09-29T17:11:40.038Z,69.75
2022-09-29T17:16:42.234Z,69.87
2022-09-29T17:21:46.209Z,69.98
2022-09-29T17:27:09.622Z,70.23
2022-09-29T17:32:15.076Z,70.84
2022-09-29T17:37:18.532Z,71.15
2022-09-29T17:42:26.674Z,71.55
2022-09-29T17:47:32.952Z,71.34
2022-09-29T17:52:44.166Z,71.05
2022-09-29T17:57:49.843Z,71.46
2022-09-29T18:02:59.784Z,72.03
2022-09-29T18:08:03.865Z,71.89
2022-09-29T18:13:07.194Z,72.29
2022-09-29T18:18:18.375Z,72.33
2022-09-29T18:23:25.068Z,72.52
2022-09-29T18:28:28.177Z,72.28
2022-09-29T18:33:31.884Z,72.34
2022-09-29T18:38:37.859Z,73.14
2022-09-29T18:43:40.758Z,72.92
2022-09-29T18:48:43.520Z,73.00
2022-09-29T18:53:45.807Z,73.13
2022-09-29T18:58:48.040Z,73.46
2022-09-29T19:03:52.302Z,73.37
2022-09-29T19:08:55.881Z,73.96
2022-09-29T19:14:04.820Z,73.92
2022-09-29T19:19:10.397Z,74.13
2022-09-29T19:24:14.637Z,74.19
2022-09-29T19:29:17.126Z,74.66
2022-09-29T19:34:20.132Z,74.86
2022-09-29T19:39:25.605Z,74.85
2022-09-29T19:44:29.774Z,74.91
2022-09-29T19:49:33.553Z,74.63
2022-09-29T19:54:39.644Z,74.94
2022-09-29T19:59:43.576Z,75.23
2022-09-29T20:04:45.579Z,74.80
2022-09-29T20:09:49.039Z,75.15
2022-09-29T20:14:52.047Z,75.38
2022-09-29T20:19:55.373Z,75.23
2022-09-29T20:24:58.820Z,75.13
2022-09-29T20:30:06.152Z,75.22
2022-09-29T20:35:10.438Z,75.10
2022-09-29T20:40:12.921Z,75.35
2022-09-29T20:45:19.474Z,75.34
2022-09-29T20:50:21.811Z,75.56
2022-09-29T20:55:24.927Z,75.80
2022-09-29T21:00:27.272Z,75.92
2022-09-29T21:05:29.783Z,76.53
2022-09-29T21:10:31.752Z,76.39
2022-09-29T21:15:34.432Z,76.56
2022-09-29T21:20:36.998Z,76.53
2022-09-29T21:25:39.219Z,76.53
2022-09-29T21:30:41.271Z,76.56
2022-09-29T21:35:45.048Z,76.78
2022-09-29T21:40:48.166Z,76.42
2022-09-29T21:45:50.840Z,76.46
2022-09-29T21:51:01.177Z,76.73
2022-09-29T21:56:07.135Z,76.82
2022-09-29T22:01:11.483Z,76.73
2022-09-29T22:06:21.376Z,76.57
2022-09-29T22:11:27.110Z,76.81
2022-09-29T22:16:31.882Z,77.11
2022-09-29T22:21:35.183Z,77.14
2022-09-29T22:26:39.643Z,77.13
2022-09-29T22:31:42.525Z,77.35
2022-09-29T22:36:46.146Z,77.63
2022-09-29T22:41:52.740Z,77.45
2022-09-29T22:46:55.265Z,77.66
2022-09-29T22:51:57.501Z,77.60
2022-09-29T22:56:59.780Z,77.74
2022-09-29T23:02:01.744Z,77.75
2022-09-29T23:07:03.816Z,77.95
2022-09-29T23:12:07.543Z,77.67
2022-09-29T23:17:09.960Z,77.96
2022-09-29T23:22:11.816Z,78.47
2022-09-29T23:27:13.839Z,78.51
2022-09-29T23:32:18.545Z,78.77
2022-09-29T23:37:21.077Z,78.78
2022-09-29T23:42:23.456Z,78.42
2022-09-29T23:47:25.685Z,78.52
2022-09-29T23:52:27.792Z,78.77
2022-09-29T23:57:38.243Z,78.53
